createdAt,value
2023-05-24T00:01:00.323Z,-18597.69
2023-05-24T00:03:28.343Z,-18597.69
2023-05-24T00:05:55.323Z,-18597.69
2023-05-24T00:08:22.131Z,-18597.69
2023-05-24T00:10:48.984Z,-18597.69
2023-05-24T00:13:16.865Z,-18597.69
2023-05-24T00:15:43.754Z,-18597.69
2023-05-24T00:18:10.801Z,-18597.69
2023-05-24T00:20:37.590Z,-18597.69
2023-05-24T00:23:04.406Z,-18597.69
2023-05-24T00:25:31.512Z,-18597.69
2023-05-24T00:28:05.607Z,-18597.69
2023-05-24T00:30:32.631Z,-18597.69
2023-05-24T00:33:00.570Z,-18597.69
2023-05-24T00:35:27.366Z,-18597.69
2023-05-24T00:37:54.308Z,-18597.69
2023-05-24T00:40:21.470Z,-18597.69
2023-05-24T00:42:50.760Z,-18597.69
2023-05-24T00:45:18.583Z,-18597.69
2023-05-24T00:47:46.354Z,-18597.69
2023-05-24T00:50:14.284Z,-18597.69
2023-05-24T00:52:42.554Z,-18597.69
2023-05-24T00:55:10.224Z,-18597.69
2023-05-24T00:57:38.198Z,-18597.69
2023-05-24T01:00:06.625Z,-18597.69
2023-05-24T01:02:33.800Z,-18597.69
2023-05-24T01:05:00.931Z,-18597.69
2023-05-24T01:08:00.973Z,-18597.69
2023-05-24T01:10:46.822Z,-18597.69
2023-05-24T01:13:46.003Z,-18597.69
2023-05-24T01:16:18.094Z,-18597.69
2023-05-24T01:18:50.148Z,-18597.69
2023-05-24T01:21:38.715Z,-18597.69
2023-05-24T01:24:25.253Z,-16761.22
2023-05-24T01:27:05.391Z,-16499.03
2023-05-24T01:29:33.937Z,-16236.81
2023-05-24T01:32:01.282Z,-15712.31
2023-05-24T01:34:28.672Z,-15712.31
2023-05-24T01:36:55.626Z,-15450.03
2023-05-24T01:39:27.595Z,-15712.31
2023-05-24T01:42:08.100Z,-15450.03
2023-05-24T01:44:53.562Z,-15187.72
2023-05-24T01:47:53.714Z,-15712.31
2023-05-24T01:50:26.070Z,-15187.72
2023-05-24T01:52:58.137Z,-15712.31
2023-05-24T01:55:27.407Z,-15974.56
2023-05-24T01:58:00.918Z,-15974.56
2023-05-24T02:00:29.430Z,-16761.22
2023-05-24T02:02:58.904Z,-16499.03
2023-05-24T02:05:25.875Z,-15712.31
2023-05-24T02:07:59.700Z,-15974.56
2023-05-24T02:10:26.407Z,-16236.81
2023-05-24T02:12:53.302Z,-16236.81
2023-05-24T02:15:20.984Z,-17023.41
2023-05-24T02:17:48.442Z,-17285.59
2023-05-24T02:20:19.579Z,-17285.59
2023-05-24T02:22:46.320Z,-17023.41
2023-05-24T02:25:13.228Z,-16761.22
2023-05-24T02:27:40.076Z,-16761.22
2023-05-24T02:30:09.268Z,-16761.22
2023-05-24T02:32:36.606Z,-16761.22
2023-05-24T02:35:08.779Z,-16761.22
2023-05-24T02:37:35.919Z,-15974.56
2023-05-24T02:40:04.292Z,-15712.31
2023-05-24T02:42:31.112Z,-15974.56
2023-05-24T02:44:58.104Z,-15450.03
2023-05-24T02:47:27.291Z,-15450.03
2023-05-24T02:49:54.698Z,-16499.03
2023-05-24T02:52:22.969Z,-16761.22
2023-05-24T02:54:57.120Z,-16761.22
2023-05-24T02:57:24.295Z,-16499.03
2023-05-24T02:59:54.447Z,-17285.59
2023-05-24T03:02:23.500Z,-16499.03
2023-05-24T03:04:50.346Z,-17547.72
2023-05-24T03:07:23.474Z,-18071.97
2023-05-24T03:09:50.291Z,-18071.97
2023-05-24T03:12:17.209Z,-18334.06
2023-05-24T03:14:43.949Z,-18334.06
2023-05-24T03:17:11.174Z,-18596.16
2023-05-24T03:19:37.846Z,-18334.06
2023-05-24T03:22:04.895Z,-18334.06
2023-05-24T03:24:32.226Z,-18596.16
2023-05-24T03:27:01.232Z,-18334.06
2023-05-24T03:29:28.048Z,-18071.97
2023-05-24T03:31:56.569Z,-18071.97
2023-05-24T03:34:23.327Z,-18071.97
2023-05-24T03:36:51.318Z,-17547.72
2023-05-24T03:39:18.837Z,-17285.59
2023-05-24T03:42:01.858Z,-16499.03
2023-05-24T03:44:34.607Z,-16761.22
2023-05-24T03:47:01.587Z,-15450.03
2023-05-24T03:49:30.748Z,-14400.75
2023-05-24T03:51:57.628Z,-13876.00
2023-05-24T03:54:24.843Z,-12038.78
2023-05-24T03:56:53.643Z,-10725.97
2023-05-24T03:59:20.419Z,-9150.00
2023-05-24T04:01:48.013Z,-3892.03
2023-05-24T04:04:15.702Z,5854.13
2023-05-24T04:06:42.480Z,2163.50
2023-05-24T04:09:11.661Z,1373.09
2023-05-24T04:11:40.404Z,11132.59
2023-05-24T04:14:07.418Z,12189.16
2023-05-24T04:16:34.407Z,15360.56
2023-05-24T04:19:05.126Z,15360.56
2023-05-24T04:21:33.569Z,15624.94
2023-05-24T04:24:03.562Z,15096.16
2023-05-24T04:26:30.809Z,26480.84
2023-05-24T04:28:58.378Z,29133.22
2023-05-24T04:31:29.547Z,33115.16
2023-05-24T04:33:59.799Z,35506.25
2023-05-24T04:36:35.791Z,29133.22
2023-05-24T04:39:05.132Z,23830.28
2023-05-24T04:41:32.424Z,31256.41
2023-05-24T04:44:02.004Z,38164.75
2023-05-24T04:46:28.819Z,37367.00
2023-05-24T04:48:55.898Z,28867.91
2023-05-24T04:51:31.946Z,37898.81
2023-05-24T04:53:58.588Z,67491.34
2023-05-24T04:56:25.684Z,-13613.59
2023-05-24T04:58:52.364Z,117940.31
2023-05-24T05:01:21.896Z,117940.31
2023-05-24T05:03:48.787Z,117940.31
2023-05-24T05:06:16.851Z,117940.31
2023-05-24T05:08:44.730Z,117940.31
2023-05-24T05:11:13.500Z,-18597.69
2023-05-24T05:13:42.272Z,-18597.69
2023-05-24T05:16:09.606Z,-18597.69
2023-05-24T05:18:36.513Z,-18597.69
2023-05-24T05:21:04.105Z,-18597.69
2023-05-24T05:23:31.258Z,-17547.72
2023-05-24T05:26:02.339Z,-16761.22
2023-05-24T05:28:29.125Z,-18596.16
2023-05-24T05:30:57.085Z,-18596.16
2023-05-24T05:33:23.903Z,-18596.16
2023-05-24T05:35:53.385Z,18005.38
2023-05-24T05:38:21.485Z,10604.44
2023-05-24T05:40:54.260Z,5326.69
2023-05-24T05:43:21.124Z,4272.00
2023-05-24T05:45:48.012Z,4272.00
2023-05-24T05:48:14.855Z,16153.81
2023-05-24T05:50:42.081Z,29133.22
2023-05-24T05:53:10.593Z,44691.91
2023-05-24T05:55:37.460Z,67907.88
2023-05-24T05:58:06.233Z,78879.34
2023-05-24T06:00:33.390Z,88872.81
2023-05-24T06:03:02.224Z,97454.81
2023-05-24T06:05:29.479Z,102162.19
2023-05-24T06:07:57.219Z,90828.19
2023-05-24T06:10:24.194Z,87703.00
2023-05-24T06:12:51.254Z,78791.19
2023-05-24T06:15:22.634Z,117940.31
2023-05-24T06:17:50.335Z,111089.78
2023-05-24T06:20:17.348Z,65003.44
2023-05-24T06:22:45.667Z,87751.41
2023-05-24T06:25:14.985Z,80172.59
2023-05-24T06:27:41.981Z,109264.19
2023-05-24T06:30:10.169Z,87902.88
2023-05-24T06:32:37.431Z,117099.00
2023-05-24T06:35:06.813Z,116876.50
2023-05-24T06:37:33.959Z,117938.19
2023-05-24T06:40:00.788Z,77884.50
2023-05-24T06:42:27.551Z,75266.38
2023-05-24T06:44:59.207Z,117940.31
2023-05-24T06:47:26.455Z,117940.31
2023-05-24T06:49:54.648Z,117940.31
2023-05-24T06:52:21.509Z,117940.31
2023-05-24T06:54:49.241Z,117938.19
2023-05-24T06:57:16.290Z,97372.56
2023-05-24T06:59:43.338Z,96293.06
2023-05-24T07:02:10.735Z,103315.09
2023-05-24T07:04:37.388Z,87667.25
2023-05-24T07:07:08.948Z,78791.19
2023-05-24T07:09:35.903Z,50679.59
2023-05-24T07:12:02.928Z,34970.63
2023-05-24T07:14:47.803Z,10680.75
2023-05-24T07:17:14.685Z,26476.72
2023-05-24T07:19:41.897Z,14827.69
2023-05-24T07:22:08.606Z,-1562.69
2023-05-24T07:24:37.086Z,-14521.66
2023-05-24T07:27:04.906Z,-18597.69
2023-05-24T07:29:32.684Z,-17830.34
2023-05-24T07:31:59.703Z,-1885.56
2023-05-24T07:34:28.151Z,37628.75
2023-05-24T07:36:54.986Z,13435.94
2023-05-24T07:39:21.786Z,7671.91
2023-05-24T07:41:48.453Z,4811.66
2023-05-24T07:44:15.203Z,-3133.56
2023-05-24T07:46:42.060Z,-10471.56
2023-05-24T07:49:09.008Z,-16363.81
2023-05-24T07:51:35.822Z,-18597.69
2023-05-24T07:54:03.771Z,-11353.72
2023-05-24T07:56:30.829Z,-13779.63
2023-05-24T07:59:03.676Z,-15458.22
2023-05-24T08:01:35.285Z,-16593.25
2023-05-24T08:04:04.403Z,-18411.88
2023-05-24T08:06:32.968Z,-17508.81
2023-05-24T08:09:00.125Z,-18597.69
2023-05-24T08:11:27.671Z,-18597.69
2023-05-24T08:13:54.378Z,-18597.69
2023-05-24T08:16:21.480Z,-13970.28
2023-05-24T08:18:48.358Z,-15511.50
2023-05-24T08:21:15.375Z,-18597.69
2023-05-24T08:23:42.512Z,-18597.69
2023-05-24T08:26:09.479Z,-18597.69
2023-05-24T08:28:36.727Z,-18597.69
2023-05-24T08:31:10.073Z,-18597.69
2023-05-24T08:33:37.233Z,-18597.69
2023-05-24T08:36:05.468Z,-18597.69
2023-05-24T08:38:32.639Z,-18597.69
2023-05-24T08:41:00.037Z,-18597.69
2023-05-24T08:43:27.339Z,-18597.69
2023-05-24T08:45:58.017Z,-18597.69
2023-05-24T08:48:27.145Z,-18597.69
2023-05-24T08:50:54.178Z,-18597.69
2023-05-24T08:53:22.482Z,-18597.69
2023-05-24T08:56:06.364Z,-18597.69
2023-05-24T08:58:33.661Z,-18597.69
2023-05-24T09:01:04.087Z,-18597.69
2023-05-24T09:03:33.372Z,-18597.69
2023-05-24T09:06:01.280Z,-18597.69
2023-05-24T09:08:29.279Z,-18597.69
2023-05-24T09:10:56.907Z,-18597.69
2023-05-24T09:13:27.044Z,-18597.69
2023-05-24T09:15:56.265Z,-18597.69
2023-05-24T09:18:23.140Z,-18597.69
2023-05-24T09:20:50.159Z,-18597.69
2023-05-24T09:23:18.255Z,-18597.69
2023-05-24T09:25:46.369Z,-18597.69
2023-05-24T09:28:16.738Z,-18597.69
2023-05-24T09:30:45.109Z,-18597.69
2023-05-24T09:33:13.710Z,-18597.69
2023-05-24T09:35:48.230Z,-18597.69
2023-05-24T09:38:19.302Z,-18597.69
2023-05-24T09:40:47.068Z,-18597.69
2023-05-24T09:43:15.214Z,-18597.69
2023-05-24T09:45:46.803Z,-18597.69
2023-05-24T09:48:15.349Z,-18597.69
2023-05-24T09:50:47.603Z,-18597.69
2023-05-24T09:53:18.122Z,-18597.69
2023-05-24T09:55:45.103Z,-18597.69
2023-05-24T09:58:13.011Z,-18597.69
2023-05-24T10:00:41.776Z,-18597.69
2023-05-24T10:03:11.606Z,-18597.69
2023-05-24T10:05:44.628Z,-18597.69
2023-05-24T10:08:12.406Z,-18597.69
2023-05-24T10:10:39.140Z,-18597.69
2023-05-24T10:13:05.974Z,-18597.69
2023-05-24T10:15:32.771Z,-18597.69
2023-05-24T10:18:10.391Z,-18597.69
2023-05-24T10:20:41.470Z,-18597.69
2023-05-24T10:23:15.739Z,-18597.69
2023-05-24T10:25:53.992Z,-18597.69
2023-05-24T10:28:24.659Z,-18597.69
2023-05-24T10:31:02.828Z,-18597.69
2023-05-24T10:33:32.505Z,-18597.69
2023-05-24T10:35:59.740Z,-18597.69
2023-05-24T10:38:26.549Z,-18597.69
2023-05-24T10:40:53.622Z,-18597.69
2023-05-24T10:43:22.070Z,-18597.69
2023-05-24T10:45:50.976Z,-18597.69
2023-05-24T10:48:18.127Z,-18597.69
2023-05-24T10:50:45.272Z,-18597.69
2023-05-24T10:53:22.623Z,-18597.69
2023-05-24T10:56:04.388Z,-18597.69
2023-05-24T10:58:34.141Z,-18597.69
2023-05-24T11:01:01.353Z,-18597.69
2023-05-24T11:03:33.316Z,-18597.69
2023-05-24T11:06:00.438Z,-18597.69
2023-05-24T11:08:35.433Z,-18597.69
2023-05-24T11:11:22.231Z,-18597.69
2023-05-24T11:13:51.096Z,-18597.69
2023-05-24T11:16:38.698Z,-18597.69
2023-05-24T11:19:20.353Z,-18597.69
2023-05-24T11:21:53.860Z,-18597.69
2023-05-24T11:24:27.013Z,-18597.69
2023-05-24T11:26:55.181Z,-18597.69
2023-05-24T11:29:22.484Z,-18597.69
2023-05-24T11:32:02.694Z,-18597.69
2023-05-24T11:34:30.293Z,-18597.69
2023-05-24T11:37:02.403Z,-18597.69
2023-05-24T11:39:31.329Z,-18597.69
2023-05-24T11:41:58.192Z,-18597.69
2023-05-24T11:44:26.090Z,-18597.69
2023-05-24T11:47:06.976Z,-18597.69
2023-05-24T11:49:33.970Z,-18597.69
2023-05-24T11:52:02.806Z,-18597.69
2023-05-24T11:54:32.725Z,-18597.69
2023-05-24T11:56:59.635Z,-18597.69
2023-05-24T11:59:28.550Z,-18597.69
2023-05-24T12:02:02.759Z,-18597.69
2023-05-24T12:04:31.268Z,-18597.69
2023-05-24T12:06:58.682Z,-18597.69
2023-05-24T12:09:25.847Z,-18424.16
2023-05-24T12:11:54.782Z,-17557.97
2023-05-24T12:14:31.300Z,-18597.69
2023-05-24T12:16:59.194Z,-18196.88
2023-05-24T12:19:36.018Z,-18597.69
2023-05-24T12:22:07.466Z,-18597.69
2023-05-24T12:24:34.703Z,-18597.69
2023-05-24T12:27:07.609Z,-11755.75
2023-05-24T12:29:40.315Z,-17826.25
2023-05-24T12:32:13.254Z,-18597.69
2023-05-24T12:34:42.496Z,-18597.69
2023-05-24T12:37:11.177Z,-18597.69
2023-05-24T12:39:38.380Z,-18597.69
2023-05-24T12:42:06.137Z,-18597.69
2023-05-24T12:44:36.921Z,-18583.88
2023-05-24T12:47:06.900Z,-16757.13
2023-05-24T12:49:34.205Z,-18597.69
2023-05-24T12:52:02.348Z,-18597.69
2023-05-24T12:54:30.359Z,-18597.69
2023-05-24T12:57:00.208Z,-18597.69
2023-05-24T12:59:29.122Z,-18597.69
2023-05-24T13:01:56.383Z,-18597.69
2023-05-24T13:04:27.835Z,-17218.00
2023-05-24T13:06:54.952Z,-18597.69
2023-05-24T13:09:26.495Z,-16742.78
2023-05-24T13:11:54.212Z,-18597.69
2023-05-24T13:14:22.104Z,-18597.69
2023-05-24T13:16:49.360Z,-18597.69
2023-05-24T13:19:17.591Z,-12818.06
2023-05-24T13:21:44.842Z,-11232.69
2023-05-24T13:24:14.744Z,-18597.69
2023-05-24T13:26:41.842Z,-14909.03
2023-05-24T13:29:32.171Z,-4720.25
2023-05-24T13:31:56.376Z,-10463.34
2023-05-24T13:34:27.287Z,-18597.69
2023-05-24T13:36:55.038Z,-18571.59
2023-05-24T13:39:22.445Z,1908.25
2023-05-24T13:41:49.793Z,5629.53
2023-05-24T13:44:17.032Z,3839.50
2023-05-24T13:46:44.463Z,-11649.09
2023-05-24T13:49:12.278Z,-18049.44
2023-05-24T13:51:39.707Z,-17953.22
2023-05-24T13:54:07.860Z,-14702.03
2023-05-24T13:56:36.856Z,-6842.31
2023-05-24T13:59:05.339Z,-1297.41
2023-05-24T14:01:36.327Z,-5199.00
2023-05-24T14:04:04.590Z,15895.56
2023-05-24T14:06:35.710Z,13656.84
2023-05-24T14:09:02.540Z,12593.69
2023-05-24T14:11:31.896Z,7053.53
2023-05-24T14:16:33.093Z,4673.66
2023-05-24T14:18:59.830Z,-941.56
2023-05-24T14:21:27.725Z,1887.66
2023-05-24T14:23:54.578Z,2052.34
2023-05-24T14:26:23.781Z,4644.81
2023-05-24T14:28:52.278Z,7474.03
2023-05-24T14:31:20.590Z,-2736.81
2023-05-24T14:33:47.428Z,-925.13
2023-05-24T14:36:14.224Z,3878.63
2023-05-24T14:38:41.015Z,-2893.03
2023-05-24T14:41:09.330Z,798.94
2023-05-24T14:43:37.846Z,10113.47
2023-05-24T14:46:04.848Z,1830.03
2023-05-24T14:48:31.789Z,7709.03
2023-05-24T14:50:58.455Z,1941.19
2023-05-24T14:53:28.382Z,12410.00
2023-05-24T14:55:55.817Z,7471.97
2023-05-24T14:58:22.847Z,12300.59
2023-05-24T15:00:51.660Z,23174.13
2023-05-24T15:03:19.047Z,18691.66
2023-05-24T15:05:46.392Z,45659.72
2023-05-24T15:08:17.564Z,19121.69
2023-05-24T15:10:47.196Z,18776.41
2023-05-24T15:13:16.408Z,35863.38
2023-05-24T15:15:43.688Z,23043.75
2023-05-24T15:18:10.758Z,11192.44
2023-05-24T15:20:39.683Z,14317.59
2023-05-24T15:23:06.772Z,21876.63
2023-05-24T15:25:33.711Z,25321.00
2023-05-24T15:28:00.545Z,34810.78
2023-05-24T15:30:27.330Z,27966.38
2023-05-24T15:32:57.604Z,13532.97
2023-05-24T15:35:24.503Z,8475.97
2023-05-24T15:37:52.300Z,7065.91
2023-05-24T15:40:19.004Z,13427.69
2023-05-24T15:42:46.596Z,22029.75
2023-05-24T15:45:18.351Z,6196.19
2023-05-24T15:47:45.154Z,10080.47
2023-05-24T15:50:13.044Z,10911.84
2023-05-24T15:52:39.764Z,-5112.69
2023-05-24T15:55:07.171Z,-10172.00
2023-05-24T15:57:35.721Z,-3914.66
2023-05-24T16:00:02.572Z,-13638.19
2023-05-24T16:02:39.552Z,-11107.56
2023-05-24T16:05:07.043Z,-8895.47
2023-05-24T16:07:34.015Z,-5055.16
2023-05-24T16:10:00.891Z,-6072.09
2023-05-24T16:12:27.605Z,-10196.63
2023-05-24T16:14:54.355Z,-7823.88
2023-05-24T16:17:23.156Z,-7550.78
2023-05-24T16:19:50.058Z,-8883.16
2023-05-24T16:22:17.188Z,-9012.47
2023-05-24T16:24:46.961Z,-2952.66
2023-05-24T16:27:13.875Z,1319.59
2023-05-24T16:29:41.070Z,-7795.13
2023-05-24T16:32:08.800Z,-3250.75
2023-05-24T16:34:52.004Z,-10799.84
2023-05-24T16:37:22.105Z,-14068.69
2023-05-24T16:39:48.964Z,-14718.44
2023-05-24T16:42:16.894Z,-9638.44
2023-05-24T16:44:43.753Z,-14900.81
2023-05-24T16:47:16.750Z,-8201.63
2023-05-24T16:49:43.523Z,-8961.16
2023-05-24T16:52:10.597Z,-6240.53
2023-05-24T16:54:38.508Z,-8772.31
2023-05-24T16:57:05.551Z,-8511.63
2023-05-24T16:59:33.899Z,1204.34
2023-05-24T17:02:00.894Z,-297.72
2023-05-24T17:04:28.861Z,13518.50
2023-05-24T17:06:55.795Z,10410.50
2023-05-24T17:09:22.901Z,821.56
2023-05-24T17:11:51.139Z,10608.56
2023-05-24T17:14:18.253Z,2826.41
2023-05-24T17:16:46.088Z,5837.66
2023-05-24T17:19:14.077Z,-4062.63
2023-05-24T17:21:41.349Z,-2967.06
2023-05-24T17:24:08.084Z,-6517.81
2023-05-24T17:26:35.904Z,-8445.94
2023-05-24T17:29:02.939Z,-8924.22
2023-05-24T17:31:29.909Z,-11681.91
2023-05-24T17:33:57.992Z,-10262.28
2023-05-24T17:36:25.002Z,-12684.78
2023-05-24T17:38:52.110Z,-14253.16
2023-05-24T17:41:18.894Z,-13826.78
2023-05-24T17:43:45.790Z,-12432.56
2023-05-24T17:46:14.464Z,-14544.22
2023-05-24T17:48:42.963Z,-13429.06
2023-05-24T17:51:10.761Z,-4788.06
2023-05-24T17:53:38.479Z,-11599.88
2023-05-24T17:56:05.952Z,-9835.47
2023-05-24T17:58:36.382Z,-10383.34
2023-05-24T18:01:08.005Z,-10299.22
2023-05-24T18:03:38.817Z,-6805.34
2023-05-24T18:06:07.590Z,-10052.97
2023-05-24T18:08:37.322Z,-7971.69
2023-05-24T18:11:10.337Z,-5174.34
2023-05-24T18:13:38.024Z,-1776.56
2023-05-24T18:16:06.015Z,-2722.41
2023-05-24T18:18:33.180Z,3880.69
2023-05-24T18:21:00.169Z,6225.03
2023-05-24T18:23:27.385Z,4329.66
2023-05-24T18:26:00.170Z,7030.84
2023-05-24T18:28:28.733Z,9799.94
2023-05-24T18:30:56.732Z,13130.41
2023-05-24T18:33:23.596Z,11404.97
2023-05-24T18:35:51.557Z,9323.50
2023-05-24T18:38:18.535Z,10823.13
2023-05-24T18:40:45.416Z,9571.00
2023-05-24T18:43:12.781Z,10311.50
2023-05-24T18:45:44.664Z,10109.34
2023-05-24T18:48:11.742Z,8766.72
2023-05-24T18:50:41.125Z,6855.66
2023-05-24T18:53:08.929Z,6159.09
2023-05-24T18:55:35.844Z,6286.88
2023-05-24T18:58:04.823Z,5918.00
2023-05-24T19:00:31.693Z,3320.56
2023-05-24T19:03:00.016Z,-83.75
2023-05-24T19:05:27.851Z,-2899.22
2023-05-24T19:07:54.490Z,-7166.78
2023-05-24T19:10:21.479Z,-10278.69
2023-05-24T19:12:49.743Z,-12215.16
2023-05-24T19:15:17.025Z,-12606.84
2023-05-24T19:17:45.358Z,-16277.78
2023-05-24T19:20:13.254Z,-18597.69
2023-05-24T19:22:40.250Z,-18597.69
2023-05-24T19:25:08.416Z,-18597.69
2023-05-24T19:27:37.879Z,-18597.69
2023-05-24T19:30:07.211Z,-18597.69
2023-05-24T19:32:35.854Z,-18597.69
2023-05-24T19:35:08.222Z,-18597.69
2023-05-24T19:37:35.001Z,-18597.69
2023-05-24T19:40:01.854Z,-18597.69
2023-05-24T19:42:28.675Z,-18597.69
2023-05-24T19:44:56.616Z,-18597.69
2023-05-24T19:47:23.398Z,-18597.69
2023-05-24T19:49:50.194Z,-18597.69
2023-05-24T19:52:20.520Z,-18597.69
2023-05-24T19:54:47.620Z,-18597.69
2023-05-24T19:57:14.367Z,-18597.69
2023-05-24T19:59:41.592Z,-18597.69
2023-05-24T20:02:08.572Z,-18597.69
2023-05-24T20:04:35.591Z,-18597.69
2023-05-24T20:07:02.397Z,-18597.69
2023-05-24T20:09:29.155Z,-18597.69
2023-05-24T20:11:55.794Z,-18597.69
2023-05-24T20:14:23.448Z,-18597.69
2023-05-24T20:16:54.487Z,-18597.69
2023-05-24T20:19:21.616Z,-18597.69
2023-05-24T20:21:48.626Z,-18597.69
2023-05-24T20:24:15.502Z,-18597.69
2023-05-24T20:26:42.321Z,-18597.69
2023-05-24T20:29:09.194Z,-18597.69
2023-05-24T20:31:37.919Z,-18597.69
2023-05-24T20:34:04.764Z,-18597.69
2023-05-24T20:36:32.440Z,-18597.69
2023-05-24T20:39:00.536Z,-18597.69
2023-05-24T20:41:30.537Z,-18597.69
2023-05-24T20:43:57.667Z,-18597.69
2023-05-24T20:46:25.985Z,-18597.69
2023-05-24T20:48:54.016Z,-18597.69
2023-05-24T20:51:21.234Z,-18597.69
2023-05-24T20:53:49.152Z,-18597.69
2023-05-24T20:56:16.445Z,-18597.69
2023-05-24T20:58:44.001Z,-18597.69
2023-05-24T21:01:12.189Z,-18597.69
2023-05-24T21:03:39.009Z,-18597.69
2023-05-24T21:06:06.400Z,-18597.69
2023-05-24T21:08:33.113Z,-18597.69
2023-05-24T21:11:00.053Z,-18597.69
2023-05-24T21:13:28.310Z,-18597.69
2023-05-24T21:15:56.965Z,-18597.69
2023-05-24T21:18:23.758Z,-18597.69
2023-05-24T21:20:50.792Z,-18597.69
2023-05-24T21:23:17.387Z,-18597.69
2023-05-24T21:25:44.901Z,-18597.69
2023-05-24T21:28:11.815Z,-18597.69
2023-05-24T21:30:38.926Z,-18597.69
2023-05-24T21:33:05.718Z,-18597.69
2023-05-24T21:35:32.801Z,-18597.69
2023-05-24T21:37:59.961Z,-18597.69
2023-05-24T21:40:26.957Z,-18597.69
2023-05-24T21:42:53.775Z,-18597.69
2023-05-24T21:45:20.568Z,-18597.69
2023-05-24T21:47:47.532Z,-18597.69
2023-05-24T21:50:14.316Z,-18597.69
2023-05-24T21:52:43.344Z,-18597.69
2023-05-24T21:55:10.498Z,-18597.69
2023-05-24T21:57:37.337Z,-18597.69
2023-05-24T22:00:05.225Z,-18597.69
2023-05-24T22:02:32.221Z,-18597.69
2023-05-24T22:05:07.535Z,-18597.69
2023-05-24T22:07:34.478Z,-18597.69
2023-05-24T22:10:01.269Z,-18597.69
2023-05-24T22:12:28.091Z,-18597.69
2023-05-24T22:14:55.895Z,-18597.69
2023-05-24T22:17:22.614Z,-18597.69
2023-05-24T22:19:50.482Z,-18597.69
2023-05-24T22:22:19.727Z,-18597.69
2023-05-24T22:24:49.321Z,-18597.69
2023-05-24T22:27:17.335Z,-18597.69
2023-05-24T22:29:44.178Z,-18597.69
2023-05-24T22:32:11.371Z,-1786.84
2023-05-24T22:34:38.582Z,8492.47
2023-05-24T22:37:07.968Z,5590.41
2023-05-24T22:39:34.791Z,5063.00
2023-05-24T22:42:03.096Z,8228.56
2023-05-24T22:44:30.007Z,5854.13
2023-05-24T22:46:57.915Z,-733.81
2023-05-24T22:49:24.739Z,319.50
2023-05-24T22:51:55.458Z,1109.66
2023-05-24T22:54:22.171Z,846.25
2023-05-24T22:56:49.339Z,3481.19
2023-05-24T22:59:16.156Z,4008.38
2023-05-24T23:01:44.890Z,56.13
2023-05-24T23:06:46.447Z,-207.19
2023-05-24T23:09:13.477Z,56.13
2023-05-24T23:11:40.631Z,1109.66
2023-05-24T23:14:09.004Z,-470.53
2023-05-24T23:16:49.152Z,-997.09
2023-05-24T23:19:18.477Z,-1260.38
2023-05-24T23:21:45.735Z,-733.81
2023-05-24T23:24:14.849Z,2163.50
2023-05-24T23:26:42.895Z,3744.75
2023-05-24T23:29:09.736Z,-997.09
2023-05-24T23:31:36.744Z,-2050.06
2023-05-24T23:34:04.973Z,-3102.72
2023-05-24T23:36:31.784Z,-3892.03
2023-05-24T23:38:58.626Z,-2313.25
2023-05-24T23:41:26.557Z,1900.00
2023-05-24T23:43:53.315Z,56.13
2023-05-24T23:46:20.282Z,582.88
2023-05-24T23:48:47.477Z,56.13
2023-05-24T23:51:14.276Z,4008.38
2023-05-24T23:53:41.156Z,-1523.63
2023-05-24T23:56:08.070Z,-1523.63
2023-05-24T23:58:36.172Z,-2050.06
